createdAt,value
2018-09-11T00:02:17.033Z,6.03
2018-09-11T00:04:45.903Z,5.97
2018-09-11T00:07:14.878Z,6.10
2018-09-11T00:09:50.242Z,5.30
2018-09-11T00:12:19.267Z,5.73
2018-09-11T00:14:48.148Z,6.07
2018-09-11T00:17:17.228Z,5.43
2018-09-11T00:19:45.974Z,6.00
2018-09-11T00:22:14.747Z,5.60
2018-09-11T00:24:43.605Z,5.73
2018-09-11T00:27:12.602Z,6.00
2018-09-11T00:29:41.690Z,6.43
2018-09-11T00:32:10.593Z,6.10
2018-09-11T00:34:39.592Z,5.67
2018-09-11T00:37:08.291Z,4.80
2018-09-11T00:39:37.916Z,5.23
2018-09-11T00:42:06.884Z,5.07
2018-09-11T00:44:35.735Z,5.80
2018-09-11T00:47:04.711Z,5.10
2018-09-11T00:49:33.704Z,5.77
2018-09-11T00:52:02.793Z,5.43
2018-09-11T00:54:32.028Z,5.30
2018-09-11T00:57:00.849Z,5.53
2018-09-11T00:59:29.898Z,6.40
2018-09-11T01:01:58.730Z,6.17
2018-09-11T01:04:27.675Z,6.27
2018-09-11T01:06:56.677Z,5.90
2018-09-11T01:09:25.525Z,6.03
2018-09-11T01:11:54.663Z,5.20
2018-09-11T01:14:23.499Z,5.83
2018-09-11T01:19:43.710Z,5.03
2018-09-11T01:22:12.658Z,6.10
2018-09-11T01:24:41.489Z,5.33
2018-09-11T01:27:10.747Z,5.27
2018-09-11T01:29:39.594Z,5.40
2018-09-11T01:32:08.699Z,5.13
2018-09-11T01:34:37.681Z,5.73
2018-09-11T01:37:06.814Z,5.73
2018-09-11T01:39:35.600Z,6.37
2018-09-11T01:42:04.556Z,5.60
2018-09-11T01:44:33.448Z,6.17
2018-09-11T01:47:02.364Z,6.27
2018-09-11T01:49:31.544Z,6.50
2018-09-11T01:52:00.543Z,6.50
2018-09-11T01:54:29.438Z,6.20
2018-09-11T01:56:58.103Z,7.47
2018-09-11T01:59:27.150Z,6.50
2018-09-11T02:01:56.125Z,6.33
2018-09-11T02:04:25.110Z,5.80
2018-09-11T02:06:54.005Z,5.53
2018-09-11T02:09:23.139Z,6.50
2018-09-11T02:11:52.053Z,5.77
2018-09-11T02:14:20.899Z,7.03
2018-09-11T02:16:49.584Z,6.60
2018-09-11T02:19:18.423Z,5.63
2018-09-11T02:21:47.872Z,6.10
2018-09-11T02:24:17.080Z,5.87
2018-09-11T02:26:45.990Z,6.40
2018-09-11T02:29:15.001Z,6.07
2018-09-11T02:31:43.878Z,5.67
2018-09-11T02:34:12.914Z,6.50
2018-09-11T02:36:41.763Z,6.30
2018-09-11T02:39:12.186Z,5.77
2018-09-11T02:41:41.050Z,6.47
2018-09-11T02:44:10.871Z,6.30
2018-09-11T02:46:40.012Z,6.50
2018-09-11T02:49:09.041Z,5.93
2018-09-11T02:51:37.970Z,6.70
2018-09-11T02:54:06.852Z,6.73
2018-09-11T02:56:35.733Z,5.53
2018-09-11T02:59:04.856Z,6.00
2018-09-11T03:01:33.759Z,6.10
2018-09-11T03:04:02.789Z,6.70
2018-09-11T03:06:31.727Z,6.70
2018-09-11T03:09:00.834Z,7.17
2018-09-11T03:11:29.900Z,6.33
2018-09-11T03:13:58.846Z,6.23
2018-09-11T03:16:27.622Z,6.97
2018-09-11T03:18:56.477Z,6.90
2018-09-11T03:21:25.516Z,6.50
2018-09-11T03:23:54.449Z,7.30
2018-09-11T03:26:23.305Z,7.53
2018-09-11T03:28:52.299Z,6.40
2018-09-11T03:31:21.155Z,5.70
2018-09-11T03:33:50.182Z,6.73
2018-09-11T03:36:19.005Z,7.40
2018-09-11T03:38:47.844Z,7.27
2018-09-11T03:41:16.821Z,7.37
2018-09-11T03:43:45.844Z,8.10
2018-09-11T03:46:15.003Z,7.20
2018-09-11T03:48:43.675Z,7.37
2018-09-11T03:51:12.624Z,7.27
2018-09-11T03:53:42.204Z,7.30
2018-09-11T03:56:11.395Z,7.07
2018-09-11T03:58:40.341Z,7.03
2018-09-11T04:01:09.176Z,7.57
2018-09-11T04:03:37.928Z,6.83
2018-09-11T04:06:06.717Z,8.10
2018-09-11T04:08:35.751Z,7.10
2018-09-11T04:11:04.669Z,7.33
2018-09-11T04:13:37.154Z,7.20
2018-09-11T04:16:05.993Z,7.13
2018-09-11T04:18:34.885Z,7.27
2018-09-11T04:21:03.841Z,8.10
2018-09-11T04:23:32.838Z,7.60
2018-09-11T04:26:03.818Z,7.23
2018-09-11T04:28:33.537Z,7.70
2018-09-11T04:31:03.027Z,7.07
2018-09-11T04:33:32.054Z,8.30
2018-09-11T04:36:01.002Z,8.80
2018-09-11T04:38:30.118Z,7.93
2018-09-11T04:40:59.018Z,7.20
2018-09-11T04:43:27.982Z,8.27
2018-09-11T04:45:56.828Z,7.67
2018-09-11T04:48:25.864Z,8.37
2018-09-11T04:50:54.964Z,8.03
2018-09-11T04:53:24.082Z,8.27
2018-09-11T04:55:53.066Z,7.30
2018-09-11T04:58:21.945Z,7.80
2018-09-11T05:00:50.714Z,7.70
2018-09-11T05:03:19.734Z,8.70
2018-09-11T05:05:49.108Z,9.10
2018-09-11T05:08:17.949Z,6.97
2018-09-11T05:10:46.935Z,8.70
2018-09-11T05:13:15.702Z,7.37
2018-09-11T05:15:44.415Z,7.50
2018-09-11T05:18:13.391Z,8.07
2018-09-11T05:20:42.186Z,7.90
2018-09-11T05:23:10.983Z,7.50
2018-09-11T05:25:39.881Z,9.60
2018-09-11T05:28:09.351Z,8.67
2018-09-11T05:30:38.075Z,8.93
2018-09-11T05:33:07.267Z,8.43
2018-09-11T05:35:36.225Z,8.30
2018-09-11T05:38:05.225Z,8.50
2018-09-11T05:40:34.307Z,7.93
2018-09-11T05:43:03.297Z,9.33
2018-09-11T05:45:32.309Z,9.17
2018-09-11T05:48:01.742Z,8.80
2018-09-11T05:50:30.583Z,8.40
2018-09-11T05:52:59.274Z,7.83
2018-09-11T05:55:28.114Z,7.73
2018-09-11T05:57:57.154Z,8.23
2018-09-11T06:00:27.260Z,8.97
2018-09-11T06:02:55.969Z,16.90
2018-09-11T06:05:25.073Z,13.10
2018-09-11T06:07:53.757Z,8.53
2018-09-11T06:10:22.628Z,8.43
2018-09-11T06:12:51.886Z,7.63
2018-09-11T06:15:20.492Z,7.00
2018-09-11T06:17:49.322Z,7.40
2018-09-11T06:20:18.250Z,8.27
2018-09-11T06:22:46.992Z,7.17
2018-09-11T06:25:15.872Z,7.93
2018-09-11T06:27:44.795Z,7.80
2018-09-11T06:30:13.489Z,7.90
2018-09-11T06:32:42.230Z,7.33
2018-09-11T06:35:11.226Z,8.23
2018-09-11T06:37:40.084Z,7.97
2018-09-11T06:40:09.232Z,7.50
2018-09-11T06:42:38.027Z,6.83
2018-09-11T06:45:06.810Z,9.53
2018-09-11T06:47:35.840Z,11.27
2018-09-11T06:50:04.872Z,9.60
2018-09-11T06:52:33.791Z,7.90
2018-09-11T06:55:02.631Z,8.90
2018-09-11T06:57:31.999Z,8.80
2018-09-11T07:00:01.002Z,7.40
2018-09-11T07:02:30.001Z,6.80
2018-09-11T07:04:59.042Z,7.90
2018-09-11T07:07:28.033Z,6.27
2018-09-11T07:09:57.759Z,7.97
2018-09-11T07:12:26.815Z,6.90
2018-09-11T07:14:55.724Z,6.60
2018-09-11T07:17:24.687Z,7.83
2018-09-11T07:19:53.678Z,7.97
2018-09-11T07:22:22.467Z,7.57
2018-09-11T07:24:51.765Z,7.30
2018-09-11T07:27:20.636Z,8.67
2018-09-11T07:29:49.858Z,8.63
2018-09-11T07:32:18.666Z,9.30
2018-09-11T07:34:47.712Z,8.33
2018-09-11T07:37:16.991Z,8.53
2018-09-11T07:39:45.818Z,9.37
2018-09-11T07:42:14.703Z,9.20
2018-09-11T07:44:43.558Z,9.27
2018-09-11T07:47:12.302Z,8.00
2018-09-11T07:49:41.256Z,8.73
2018-09-11T07:52:10.182Z,8.40
2018-09-11T07:54:39.123Z,6.97
2018-09-11T07:57:08.185Z,7.03
2018-09-11T07:59:37.228Z,7.10
2018-09-11T08:02:06.102Z,5.43
2018-09-11T08:04:35.017Z,5.80
2018-09-11T08:07:04.042Z,7.10
2018-09-11T08:09:33.239Z,7.30
2018-09-11T08:12:02.116Z,6.27
2018-09-11T08:14:30.954Z,5.90
2018-09-11T08:16:59.717Z,5.83
2018-09-11T08:19:28.931Z,5.60
2018-09-11T08:21:57.839Z,6.00
2018-09-11T08:24:26.725Z,5.33
2018-09-11T08:26:55.600Z,5.13
2018-09-11T08:29:24.715Z,4.00
2018-09-11T08:31:53.758Z,4.33
2018-09-11T08:34:22.541Z,5.00
2018-09-11T08:36:51.362Z,6.30
2018-09-11T08:39:20.397Z,4.97
2018-09-11T08:41:49.264Z,4.60
2018-09-11T08:44:18.236Z,4.97
2018-09-11T08:46:47.085Z,3.90
2018-09-11T08:49:15.955Z,3.43
2018-09-11T08:51:44.821Z,3.90
2018-09-11T08:54:13.713Z,4.67
2018-09-11T08:56:42.611Z,4.30
2018-09-11T08:59:12.948Z,3.93
2018-09-11T09:01:41.763Z,4.77
2018-09-11T09:04:10.610Z,4.30
2018-09-11T09:06:39.548Z,4.60
2018-09-11T09:09:10.619Z,4.10
2018-09-11T09:11:39.876Z,3.80
2018-09-11T09:14:09.049Z,3.90
2018-09-11T09:16:37.972Z,3.90
2018-09-11T09:19:06.919Z,4.20
2018-09-11T09:21:35.973Z,3.83
2018-09-11T09:24:04.931Z,3.83
2018-09-11T09:26:34.885Z,3.03
2018-09-11T09:29:03.847Z,3.43
2018-09-11T09:31:32.993Z,3.90
2018-09-11T09:34:01.924Z,3.97
2018-09-11T09:36:31.229Z,4.80
2018-09-11T09:39:00.480Z,4.63
2018-09-11T09:41:29.373Z,4.43
2018-09-11T09:43:58.083Z,4.87
2018-09-11T09:46:26.825Z,4.00
2018-09-11T09:48:56.647Z,4.10
2018-09-11T09:51:25.592Z,4.40
2018-09-11T09:53:54.537Z,4.37
2018-09-11T09:56:23.498Z,4.37
2018-09-11T09:58:52.696Z,4.33
2018-09-11T10:01:28.376Z,4.70
2018-09-11T10:03:57.393Z,4.17
2018-09-11T10:06:26.362Z,4.03
2018-09-11T10:08:55.112Z,4.30
2018-09-11T10:11:24.171Z,4.13
2018-09-11T10:13:53.541Z,4.53
2018-09-11T10:16:22.282Z,4.10
2018-09-11T10:18:51.026Z,4.23
2018-09-11T10:21:19.755Z,4.80
2018-09-11T10:23:48.674Z,4.30
2018-09-11T10:26:17.314Z,3.80
2018-09-11T10:28:46.013Z,3.87
2018-09-11T10:31:14.923Z,4.13
2018-09-11T10:33:43.706Z,3.77
2018-09-11T10:36:12.491Z,3.90
2018-09-11T10:38:41.405Z,3.73
2018-09-11T10:41:10.282Z,4.47
2018-09-11T10:43:39.109Z,4.23
2018-09-11T10:46:08.155Z,3.30
2018-09-11T10:48:36.989Z,3.90
2018-09-11T10:51:05.863Z,6.57
2018-09-11T10:53:35.107Z,4.83
2018-09-11T10:56:04.050Z,3.60
2018-09-11T10:58:32.949Z,3.60
2018-09-11T11:01:02.320Z,3.20
2018-09-11T11:03:31.135Z,3.60
2018-09-11T11:06:00.029Z,3.70
2018-09-11T11:08:28.969Z,3.60
2018-09-11T11:10:57.695Z,3.70
2018-09-11T11:13:26.912Z,4.40
2018-09-11T11:15:55.988Z,3.03
2018-09-11T11:18:25.099Z,3.17
2018-09-11T11:20:53.829Z,3.60
2018-09-11T11:23:22.630Z,2.67
2018-09-11T11:25:51.553Z,4.03
2018-09-11T11:28:20.337Z,3.70
2018-09-11T11:30:49.218Z,3.30
2018-09-11T11:33:18.064Z,3.93
2018-09-11T11:35:46.759Z,3.93
2018-09-11T11:38:15.883Z,3.93
2018-09-11T11:40:44.801Z,5.90
2018-09-11T11:43:14.048Z,3.33
2018-09-11T11:45:43.280Z,3.50
2018-09-11T11:48:12.295Z,3.63
2018-09-11T11:50:41.674Z,4.23
2018-09-11T11:53:11.057Z,4.20
2018-09-11T11:55:42.675Z,3.20
2018-09-11T11:58:11.732Z,4.00
2018-09-11T12:00:40.609Z,3.60
2018-09-11T12:03:09.759Z,2.93
2018-09-11T12:05:40.268Z,3.30
2018-09-11T12:08:16.562Z,3.73
2018-09-11T12:10:46.021Z,3.30
2018-09-11T12:13:15.187Z,3.07
2018-09-11T12:15:44.064Z,3.23
2018-09-11T12:18:12.979Z,3.00
2018-09-11T12:20:42.912Z,2.83
2018-09-11T12:23:11.893Z,3.17
2018-09-11T12:25:41.940Z,2.80
2018-09-11T12:28:11.102Z,2.97
2018-09-11T12:30:40.183Z,2.67
2018-09-11T12:33:09.538Z,2.93
2018-09-11T12:35:38.783Z,2.70
2018-09-11T12:38:07.893Z,2.70
2018-09-11T12:40:36.810Z,2.53
2018-09-11T12:43:05.588Z,2.90
2018-09-11T12:45:34.533Z,2.80
2018-09-11T12:48:03.714Z,2.43
2018-09-11T12:50:32.193Z,2.70
2018-09-11T12:53:02.876Z,2.50
2018-09-11T12:55:31.843Z,3.10
2018-09-11T12:58:00.760Z,2.67
2018-09-11T13:00:29.762Z,2.23
2018-09-11T13:02:59.598Z,5.10
2018-09-11T13:05:28.868Z,2.50
2018-09-11T13:07:57.776Z,2.93
2018-09-11T13:10:26.832Z,3.37
2018-09-11T13:12:55.717Z,2.33
2018-09-11T13:15:26.373Z,2.80
2018-09-11T13:17:55.112Z,2.47
2018-09-11T13:20:24.140Z,2.87
2018-09-11T13:22:53.000Z,2.47
2018-09-11T13:25:22.025Z,3.03
2018-09-11T13:27:51.186Z,2.67
2018-09-11T13:30:20.259Z,2.90
2018-09-11T13:32:49.047Z,2.43
2018-09-11T13:35:18.524Z,2.53
2018-09-11T13:37:47.412Z,2.60
2018-09-11T13:40:16.101Z,2.70
2018-09-11T13:42:44.998Z,2.30
2018-09-11T13:45:13.875Z,2.90
2018-09-11T13:47:43.462Z,2.70
2018-09-11T13:50:12.993Z,2.83
2018-09-11T13:52:42.458Z,2.70
2018-09-11T13:55:11.625Z,2.70
2018-09-11T13:57:40.599Z,2.50
2018-09-11T14:00:09.519Z,2.63
2018-09-11T14:02:39.087Z,2.90
2018-09-11T14:05:08.202Z,2.73
2018-09-11T14:07:36.990Z,2.97
2018-09-11T14:10:05.950Z,2.90
2018-09-11T14:12:34.820Z,2.30
2018-09-11T14:15:04.423Z,2.83
2018-09-11T14:17:33.568Z,2.87
2018-09-11T14:20:08.684Z,2.60
2018-09-11T14:22:37.624Z,3.07
2018-09-11T14:25:06.647Z,2.23
2018-09-11T14:27:35.603Z,2.80
2018-09-11T14:30:04.540Z,2.30
2018-09-11T14:32:33.520Z,2.70
2018-09-11T14:35:03.349Z,2.73
2018-09-11T14:37:34.232Z,4.77
2018-09-11T14:40:03.135Z,2.97
2018-09-11T14:42:32.729Z,2.73
2018-09-11T14:45:01.642Z,2.20
2018-09-11T14:47:36.047Z,2.07
2018-09-11T14:50:05.409Z,2.47
2018-09-11T14:52:34.420Z,2.87
2018-09-11T14:55:03.328Z,2.13
2018-09-11T14:57:32.265Z,2.40
2018-09-11T15:00:01.163Z,2.40
2018-09-11T15:02:30.133Z,2.83
2018-09-11T15:04:59.162Z,2.67
2018-09-11T15:07:28.061Z,2.77
2018-09-11T15:09:58.233Z,3.20
2018-09-11T15:12:27.053Z,2.47
2018-09-11T15:14:56.077Z,2.90
2018-09-11T15:17:25.027Z,2.53
2018-09-11T15:19:53.969Z,2.50
2018-09-11T15:22:22.898Z,2.73
2018-09-11T15:24:51.929Z,2.50
2018-09-11T15:27:20.882Z,2.83
2018-09-11T15:29:50.369Z,2.60
2018-09-11T15:32:20.015Z,2.53
2018-09-11T15:34:49.362Z,2.23
2018-09-11T15:37:18.958Z,3.03
2018-09-11T15:39:48.867Z,3.10
2018-09-11T15:42:18.437Z,2.87
2018-09-11T15:44:47.387Z,2.53
2018-09-11T15:47:16.228Z,3.03
2018-09-11T15:49:44.991Z,2.63
2018-09-11T15:52:13.621Z,2.80
2018-09-11T15:54:42.252Z,2.97
2018-09-11T15:57:11.302Z,3.57
2018-09-11T15:59:40.179Z,2.97
2018-09-11T16:02:09.279Z,2.87
2018-09-11T16:04:38.251Z,2.70
2018-09-11T16:07:07.556Z,2.53
2018-09-11T16:09:36.376Z,3.47
2018-09-11T16:12:05.885Z,2.57
2018-09-11T16:14:34.824Z,2.90
2018-09-11T16:17:03.669Z,3.20
2018-09-11T16:19:32.485Z,3.43
2018-09-11T16:22:01.161Z,2.83
2018-09-11T16:24:30.122Z,3.50
2018-09-11T16:26:59.309Z,3.33
2018-09-11T16:29:28.778Z,3.17
2018-09-11T16:31:57.967Z,3.30
2018-09-11T16:34:27.066Z,3.30
2018-09-11T16:36:56.151Z,3.27
2018-09-11T16:39:25.062Z,3.80
2018-09-11T16:41:53.849Z,3.80
2018-09-11T16:44:22.765Z,4.50
2018-09-11T16:46:51.766Z,4.20
2018-09-11T16:49:20.744Z,4.23
2018-09-11T16:51:49.693Z,4.30
2018-09-11T16:54:18.537Z,6.80
2018-09-11T16:56:47.315Z,4.20
2018-09-11T16:59:16.241Z,4.60
2018-09-11T17:01:45.239Z,5.07
2018-09-11T17:04:14.127Z,4.80
2018-09-11T17:06:42.941Z,4.63
2018-09-11T17:09:12.005Z,4.20
2018-09-11T17:11:40.859Z,5.00
2018-09-11T17:14:09.957Z,4.80
2018-09-11T17:16:38.742Z,4.07
2018-09-11T17:19:07.825Z,4.17
2018-09-11T17:21:36.722Z,4.40
2018-09-11T17:24:06.095Z,4.60
2018-09-11T17:26:35.152Z,5.53
2018-09-11T17:29:03.866Z,4.80
2018-09-11T17:31:32.860Z,3.70
2018-09-11T17:34:01.751Z,4.73
2018-09-11T17:36:30.768Z,5.40
2018-09-11T17:38:59.547Z,5.07
2018-09-11T17:41:28.414Z,7.07
2018-09-11T17:43:57.449Z,5.20
2018-09-11T17:46:26.407Z,5.03
2018-09-11T17:48:55.357Z,5.30
2018-09-11T17:51:24.274Z,4.70
2018-09-11T17:53:53.051Z,5.70
2018-09-11T17:56:21.885Z,5.33
2018-09-11T17:58:50.631Z,5.70
2018-09-11T18:01:19.740Z,5.00
2018-09-11T18:03:48.604Z,4.90
2018-09-11T18:06:17.572Z,6.73
2018-09-11T18:08:46.705Z,4.60
2018-09-11T18:11:15.451Z,6.03
2018-09-11T18:13:44.407Z,6.13
2018-09-11T18:16:13.588Z,11.93
2018-09-11T18:18:42.497Z,8.97
2018-09-11T18:21:11.511Z,7.80
2018-09-11T18:23:41.018Z,8.73
2018-09-11T18:26:10.062Z,6.10
2018-09-11T18:28:38.756Z,7.67
2018-09-11T18:31:07.785Z,8.73
2018-09-11T18:33:36.650Z,6.20
2018-09-11T18:36:05.632Z,4.40
2018-09-11T18:38:34.375Z,5.40
2018-09-11T18:41:03.290Z,4.40
2018-09-11T18:43:32.430Z,4.60
2018-09-11T18:46:01.369Z,4.33
2018-09-11T18:48:30.216Z,4.30
2018-09-11T18:50:59.357Z,6.03
2018-09-11T18:53:28.362Z,5.17
2018-09-11T18:55:57.235Z,5.47
2018-09-11T18:58:26.214Z,6.13
2018-09-11T19:00:55.997Z,5.37
2018-09-11T19:03:24.795Z,6.27
2018-09-11T19:05:53.717Z,4.83
2018-09-11T19:08:22.543Z,5.17
2018-09-11T19:10:51.323Z,7.30
2018-09-11T19:13:20.275Z,6.60
2018-09-11T19:15:49.651Z,5.67
2018-09-11T19:18:23.519Z,6.30
2018-09-11T19:20:52.662Z,6.97
2018-09-11T19:23:22.308Z,10.57
2018-09-11T19:25:51.681Z,13.50
2018-09-11T19:28:20.870Z,16.37
2018-09-11T19:30:50.267Z,7.00
2018-09-11T19:33:19.389Z,7.60
2018-09-11T19:35:48.496Z,6.23
2018-09-11T19:38:18.226Z,6.33
2018-09-11T19:40:47.229Z,5.50
2018-09-11T19:43:15.977Z,6.33
2018-09-11T19:45:44.981Z,11.70
2018-09-11T19:48:14.069Z,7.63
2018-09-11T19:50:42.847Z,6.47
2018-09-11T19:53:11.737Z,5.70
2018-09-11T19:55:40.487Z,5.23
2018-09-11T19:58:09.367Z,5.90
2018-09-11T20:00:38.376Z,5.97
2018-09-11T20:03:07.983Z,6.47
2018-09-11T20:05:37.037Z,6.60
2018-09-11T20:08:05.932Z,6.90
2018-09-11T20:10:35.484Z,5.90
2018-09-11T20:13:04.836Z,6.03
2018-09-11T20:15:33.614Z,5.53
2018-09-11T20:18:02.551Z,6.60
2018-09-11T20:20:31.563Z,6.00
2018-09-11T20:23:00.831Z,5.40
2018-09-11T20:25:29.862Z,5.87
2018-09-11T20:27:59.229Z,5.20
2018-09-11T20:30:28.099Z,5.23
2018-09-11T20:32:57.105Z,6.03
2018-09-11T20:35:26.283Z,5.37
2018-09-11T20:37:55.157Z,5.43
2018-09-11T20:40:24.155Z,5.90
2018-09-11T20:42:53.050Z,6.07
2018-09-11T20:45:22.553Z,4.57
2018-09-11T20:47:51.529Z,5.20
2018-09-11T20:50:20.655Z,5.50
2018-09-11T20:52:50.428Z,6.10
2018-09-11T20:55:19.106Z,5.00
2018-09-11T20:57:48.330Z,6.60
2018-09-11T21:00:17.560Z,6.20
2018-09-11T21:02:46.292Z,4.97
2018-09-11T21:05:15.237Z,5.80
2018-09-11T21:07:44.201Z,6.10
2018-09-11T21:10:13.226Z,5.13
2018-09-11T21:12:42.109Z,5.50
2018-09-11T21:15:11.191Z,5.37
2018-09-11T21:17:40.331Z,5.43
2018-09-11T21:20:09.260Z,5.83
2018-09-11T21:22:37.965Z,5.07
2018-09-11T21:25:06.736Z,5.90
2018-09-11T21:27:35.990Z,6.47
2018-09-11T21:30:06.538Z,5.50
2018-09-11T21:32:35.859Z,6.17
2018-09-11T21:35:06.308Z,6.27
2018-09-11T21:37:35.183Z,6.17
2018-09-11T21:40:04.722Z,6.07
2018-09-11T21:42:33.653Z,6.93
2018-09-11T21:45:03.804Z,6.57
2018-09-11T21:47:32.606Z,6.37
2018-09-11T21:50:01.661Z,6.93
2018-09-11T21:52:30.684Z,6.57
2018-09-11T21:54:59.770Z,6.63
2018-09-11T21:57:28.802Z,6.40
2018-09-11T21:59:58.431Z,6.83
2018-09-11T22:02:27.643Z,7.10
2018-09-11T22:04:56.465Z,6.60
2018-09-11T22:07:25.527Z,7.10
2018-09-11T22:09:54.485Z,6.10
2018-09-11T22:12:23.463Z,6.63
2018-09-11T22:14:53.336Z,6.60
2018-09-11T22:17:22.311Z,6.37
2018-09-11T22:19:51.100Z,6.97
2018-09-11T22:22:20.126Z,6.47
2018-09-11T22:24:49.048Z,7.00
2018-09-11T22:27:17.967Z,6.87
2018-09-11T22:29:47.096Z,6.30
2018-09-11T22:32:16.137Z,6.10
2018-09-11T22:34:45.108Z,7.13
2018-09-11T22:37:14.007Z,7.00
2018-09-11T22:39:42.934Z,6.33
2018-09-11T22:42:11.883Z,6.87
2018-09-11T22:44:40.696Z,6.90
2018-09-11T22:47:09.727Z,6.70
2018-09-11T22:49:38.674Z,7.40
2018-09-11T22:52:07.823Z,7.20
2018-09-11T22:54:36.692Z,6.40
2018-09-11T22:57:05.527Z,6.17
2018-09-11T22:59:34.923Z,6.50
2018-09-11T23:02:03.890Z,7.03
2018-09-11T23:04:32.813Z,6.40
2018-09-11T23:07:02.217Z,6.80
2018-09-11T23:09:31.311Z,6.40
2018-09-11T23:12:00.063Z,6.70
2018-09-11T23:14:28.756Z,7.00
2018-09-11T23:16:57.801Z,6.70
2018-09-11T23:19:27.590Z,5.73
2018-09-11T23:22:03.033Z,7.20
2018-09-11T23:24:33.132Z,6.27
2018-09-11T23:27:02.137Z,7.03
2018-09-11T23:29:31.311Z,6.57
2018-09-11T23:32:00.222Z,6.20
2018-09-11T23:34:29.009Z,6.17
2018-09-11T23:36:58.627Z,6.10
2018-09-11T23:39:27.626Z,7.00
2018-09-11T23:41:56.788Z,6.57
2018-09-11T23:44:25.538Z,6.30
2018-09-11T23:46:54.645Z,8.00
2018-09-11T23:49:23.622Z,6.13
2018-09-11T23:51:52.780Z,6.87
2018-09-11T23:54:21.686Z,7.43
2018-09-11T23:56:51.007Z,7.43
2018-09-11T23:59:19.883Z,7.60
